createdAt,value
2017-08-20T00:01:52.571Z,3.13
2017-08-20T00:06:54.266Z,3.13
2017-08-20T00:11:55.940Z,2.90
2017-08-20T00:16:57.613Z,3.00
2017-08-20T00:21:59.284Z,2.70
2017-08-20T00:27:00.960Z,3.10
2017-08-20T00:32:02.605Z,2.67
2017-08-20T00:37:04.278Z,3.23
2017-08-20T00:42:05.976Z,2.73
2017-08-20T00:47:07.626Z,3.13
2017-08-20T00:52:09.323Z,2.50
2017-08-20T00:57:10.973Z,2.87
2017-08-20T01:02:12.670Z,2.57
2017-08-20T01:07:14.338Z,2.60
2017-08-20T01:12:15.994Z,2.63
2017-08-20T01:17:17.663Z,3.20
2017-08-20T01:22:19.333Z,2.90
2017-08-20T01:27:21.031Z,3.27
2017-08-20T01:32:22.706Z,2.93
2017-08-20T01:37:24.930Z,3.00
2017-08-20T01:42:27.042Z,2.80
2017-08-20T01:47:28.723Z,2.40
2017-08-20T01:52:30.395Z,3.60
2017-08-20T01:57:31.975Z,3.17
2017-08-20T02:02:33.762Z,3.40
2017-08-20T02:07:35.436Z,3.40
2017-08-20T02:12:37.638Z,3.77
2017-08-20T02:17:39.375Z,3.53
2017-08-20T02:22:41.785Z,3.40
2017-08-20T02:27:43.457Z,3.30
2017-08-20T02:32:45.129Z,3.00
2017-08-20T02:38:01.836Z,3.23
2017-08-20T02:43:18.368Z,2.90
2017-08-20T02:48:34.961Z,3.07
2017-08-20T02:53:51.266Z,3.20
2017-08-20T02:58:52.886Z,3.20
2017-08-20T03:04:09.596Z,3.17
2017-08-20T03:09:25.935Z,3.30
2017-08-20T03:14:42.382Z,3.00
2017-08-20T03:19:44.123Z,3.00
2017-08-20T03:24:46.241Z,2.93
2017-08-20T03:29:47.879Z,2.77
2017-08-20T03:34:50.628Z,2.80
2017-08-20T03:39:52.246Z,2.60
2017-08-20T03:44:53.905Z,2.97
2017-08-20T03:49:56.269Z,2.80
2017-08-20T03:54:57.857Z,3.53
2017-08-20T03:59:59.555Z,3.10
2017-08-20T04:05:01.133Z,3.07
2017-08-20T04:10:02.877Z,3.20
2017-08-20T04:15:04.570Z,2.83
2017-08-20T04:20:06.647Z,3.27
2017-08-20T04:25:09.041Z,3.53
2017-08-20T04:30:11.267Z,3.90
2017-08-20T04:35:13.001Z,4.43
2017-08-20T04:40:14.650Z,3.93
2017-08-20T04:45:16.982Z,4.07
2017-08-20T04:50:19.315Z,4.63
2017-08-20T04:55:22.102Z,4.10
2017-08-20T05:00:24.412Z,4.07
2017-08-20T05:05:26.217Z,4.10
2017-08-20T05:10:27.883Z,4.67
2017-08-20T05:15:30.150Z,4.90
2017-08-20T05:20:31.817Z,4.70
2017-08-20T05:25:33.401Z,3.70
2017-08-20T05:30:35.642Z,3.60
2017-08-20T05:35:37.458Z,4.20
2017-08-20T05:40:39.150Z,3.60
2017-08-20T05:45:40.821Z,3.67
2017-08-20T05:50:43.036Z,3.30
2017-08-20T05:55:44.781Z,2.77
2017-08-20T06:00:46.454Z,3.30
2017-08-20T06:05:48.126Z,3.17
2017-08-20T06:10:50.686Z,3.13
2017-08-20T06:15:52.477Z,2.70
2017-08-20T06:20:54.169Z,2.80
2017-08-20T06:25:56.451Z,2.37
2017-08-20T06:30:58.131Z,2.47
2017-08-20T06:35:59.802Z,2.33
2017-08-20T06:41:02.061Z,2.73
2017-08-20T06:46:04.196Z,3.03
2017-08-20T06:51:05.846Z,2.80
2017-08-20T06:56:07.496Z,2.70
2017-08-20T07:01:09.165Z,2.50
2017-08-20T07:06:11.578Z,3.03
2017-08-20T07:11:13.177Z,2.30
2017-08-20T07:16:14.925Z,2.47
2017-08-20T07:21:39.813Z,2.50
2017-08-20T07:26:41.597Z,2.37
2017-08-20T07:31:44.110Z,2.90
2017-08-20T07:36:45.756Z,2.87
2017-08-20T07:41:47.455Z,2.50
2017-08-20T07:46:49.102Z,4.80
2017-08-20T07:51:51.336Z,2.90
2017-08-20T07:56:53.089Z,2.53
2017-08-20T08:01:54.735Z,2.60
2017-08-20T08:06:56.321Z,2.60
2017-08-20T08:11:58.436Z,3.00
2017-08-20T08:17:00.187Z,2.40
2017-08-20T08:22:02.488Z,2.50
2017-08-20T08:27:04.148Z,2.80
2017-08-20T08:32:05.823Z,2.63
2017-08-20T08:37:07.495Z,2.60
2017-08-20T08:42:10.012Z,2.33
2017-08-20T08:47:11.658Z,2.57
2017-08-20T08:52:13.331Z,2.47
2017-08-20T08:57:15.003Z,2.67
2017-08-20T09:02:16.657Z,2.40
2017-08-20T09:07:18.327Z,2.60
2017-08-20T09:12:20.021Z,2.30
2017-08-20T09:17:21.694Z,2.60
2017-08-20T09:22:23.371Z,3.27
2017-08-20T09:27:25.042Z,2.73
2017-08-20T09:32:26.690Z,2.60
2017-08-20T09:37:28.362Z,2.57
2017-08-20T09:42:30.057Z,2.60
2017-08-20T09:47:31.730Z,2.47
2017-08-20T09:52:33.403Z,2.50
2017-08-20T09:57:35.054Z,2.37
2017-08-20T10:02:36.752Z,2.70
2017-08-20T10:07:38.405Z,2.90
2017-08-20T10:12:40.093Z,2.50
2017-08-20T10:17:43.201Z,2.27
2017-08-20T10:22:44.854Z,2.50
2017-08-20T10:27:46.547Z,2.10
2017-08-20T10:32:48.816Z,2.63
2017-08-20T10:37:50.481Z,2.60
2017-08-20T10:42:52.998Z,2.57
2017-08-20T10:47:54.672Z,2.60
2017-08-20T10:52:56.324Z,2.10
2017-08-20T10:57:57.992Z,2.10
2017-08-20T11:02:59.688Z,2.13
2017-08-20T11:08:01.341Z,2.07
2017-08-20T11:13:02.931Z,2.07
2017-08-20T11:18:04.581Z,2.90
2017-08-20T11:23:06.259Z,10.83
2017-08-20T11:28:08.032Z,4.47
2017-08-20T11:33:09.701Z,2.87
2017-08-20T11:38:11.397Z,2.00
2017-08-20T11:43:13.516Z,1.70
2017-08-20T11:48:15.154Z,2.10
2017-08-20T11:53:16.810Z,2.23
2017-08-20T11:58:19.215Z,2.10
2017-08-20T12:03:20.888Z,1.70
2017-08-20T12:08:22.561Z,2.03
2017-08-20T12:13:24.750Z,2.60
2017-08-20T12:18:27.137Z,1.80
2017-08-20T12:23:28.808Z,3.20
2017-08-20T12:28:30.480Z,3.00
2017-08-20T12:33:32.975Z,1.87
2017-08-20T12:38:35.464Z,2.00
2017-08-20T12:43:37.113Z,1.87
2017-08-20T12:48:38.810Z,1.70
2017-08-20T12:53:40.820Z,2.10
2017-08-20T12:58:43.180Z,2.07
2017-08-20T13:03:44.853Z,1.80
2017-08-20T13:08:46.525Z,2.30
2017-08-20T13:13:48.751Z,2.13
2017-08-20T13:18:50.488Z,2.00
2017-08-20T13:23:52.236Z,1.80
2017-08-20T13:28:53.821Z,1.90
2017-08-20T13:33:55.606Z,2.00
2017-08-20T13:38:57.278Z,1.90
2017-08-20T13:43:59.155Z,2.00
2017-08-20T13:49:01.294Z,1.90
2017-08-20T13:54:02.914Z,2.00
2017-08-20T13:59:04.584Z,2.00
2017-08-20T14:04:06.235Z,2.00
2017-08-20T14:09:07.885Z,1.90
2017-08-20T14:14:09.601Z,2.20
2017-08-20T14:19:11.253Z,1.70
2017-08-20T14:24:13.562Z,1.83
2017-08-20T14:29:16.136Z,1.80
2017-08-20T14:34:17.705Z,2.00
2017-08-20T14:39:19.378Z,1.87
2017-08-20T14:44:21.075Z,1.93
2017-08-20T14:49:23.362Z,2.13
2017-08-20T14:54:25.036Z,1.93
2017-08-20T14:59:26.609Z,1.80
2017-08-20T15:04:28.249Z,1.80
2017-08-20T15:09:29.840Z,1.70
2017-08-20T15:14:32.218Z,1.97
2017-08-20T15:19:33.795Z,1.90
2017-08-20T15:24:35.366Z,2.13
2017-08-20T15:29:36.937Z,2.00
2017-08-20T15:34:39.080Z,3.17
2017-08-20T15:39:40.688Z,2.50
2017-08-20T15:44:43.851Z,2.20
2017-08-20T15:49:47.234Z,1.73
2017-08-20T15:54:50.552Z,2.10
2017-08-20T15:59:52.174Z,2.00
2017-08-20T16:04:54.924Z,1.80
2017-08-20T16:09:56.575Z,2.30
2017-08-20T16:14:58.252Z,2.43
2017-08-20T16:20:00.388Z,2.00
2017-08-20T16:25:02.002Z,2.33
2017-08-20T16:30:03.655Z,2.33
2017-08-20T16:35:05.229Z,2.27
2017-08-20T16:40:06.919Z,2.33
2017-08-20T16:45:08.590Z,2.37
2017-08-20T16:50:10.263Z,2.23
2017-08-20T16:55:12.551Z,1.90
2017-08-20T17:00:14.224Z,2.10
2017-08-20T17:05:15.802Z,2.23
2017-08-20T17:10:17.545Z,2.10
2017-08-20T17:15:19.222Z,1.90
2017-08-20T17:20:21.439Z,2.30
2017-08-20T17:25:23.201Z,2.30
2017-08-20T17:30:24.853Z,2.20
2017-08-20T17:35:27.351Z,2.20
2017-08-20T17:40:29.516Z,2.30
2017-08-20T17:45:31.121Z,2.20
2017-08-20T17:50:32.776Z,2.43
2017-08-20T17:55:35.152Z,2.10
2017-08-20T18:00:36.963Z,2.50
2017-08-20T18:05:38.609Z,2.87
2017-08-20T18:10:40.286Z,2.90
2017-08-20T18:15:41.977Z,3.20
2017-08-20T18:20:43.631Z,2.87
2017-08-20T18:25:45.861Z,2.53
2017-08-20T18:30:47.611Z,2.87
2017-08-20T18:35:49.257Z,2.90
2017-08-20T18:40:51.369Z,2.63
2017-08-20T18:45:53.017Z,2.70
2017-08-20T18:50:54.690Z,2.50
2017-08-20T18:55:56.998Z,2.60
2017-08-20T19:00:58.650Z,2.73
2017-08-20T19:06:00.321Z,2.90
2017-08-20T19:11:01.988Z,2.43
2017-08-20T19:16:04.305Z,2.60
2017-08-20T19:21:07.554Z,3.77
2017-08-20T19:26:09.266Z,2.83
2017-08-20T19:31:10.960Z,2.83
2017-08-20T19:36:12.568Z,2.93
2017-08-20T19:41:14.286Z,3.03
2017-08-20T19:46:16.798Z,3.10
2017-08-20T19:51:18.470Z,3.17
2017-08-20T19:56:20.143Z,2.63
2017-08-20T20:01:21.719Z,3.87
2017-08-20T20:06:24.103Z,2.93
2017-08-20T20:11:25.754Z,2.87
2017-08-20T20:16:28.300Z,2.80
2017-08-20T20:21:29.915Z,2.80
2017-08-20T20:26:32.722Z,2.73
2017-08-20T20:31:35.334Z,3.30
2017-08-20T20:36:37.897Z,3.17
2017-08-20T20:41:40.612Z,3.03
2017-08-20T20:46:42.951Z,2.83
2017-08-20T20:51:44.688Z,3.20
2017-08-20T20:56:46.337Z,3.17
2017-08-20T21:01:48.462Z,3.03
2017-08-20T21:06:50.073Z,3.07
2017-08-20T21:11:52.387Z,3.40
2017-08-20T21:16:54.548Z,3.17
2017-08-20T21:21:56.340Z,3.17
2017-08-20T21:26:58.650Z,3.20
2017-08-20T21:32:00.786Z,3.20
2017-08-20T21:37:02.364Z,3.50
2017-08-20T21:42:04.078Z,3.17
2017-08-20T21:47:05.731Z,3.40
2017-08-20T21:52:07.403Z,3.10
2017-08-20T21:57:09.095Z,3.00
2017-08-20T22:02:10.848Z,2.67
2017-08-20T22:07:12.517Z,2.90
2017-08-20T22:12:14.785Z,2.83
2017-08-20T22:17:16.870Z,3.30
2017-08-20T22:22:18.585Z,3.37
2017-08-20T22:27:20.217Z,2.80
2017-08-20T22:32:21.828Z,2.60
2017-08-20T22:37:23.500Z,3.03
2017-08-20T22:42:25.175Z,3.33
2017-08-20T22:47:26.861Z,3.67
2017-08-20T22:52:28.520Z,3.87
2017-08-20T22:57:30.138Z,4.60
2017-08-20T23:02:31.837Z,4.37
2017-08-20T23:07:33.538Z,4.60
2017-08-20T23:12:35.173Z,4.00
2017-08-20T23:17:37.704Z,4.37
2017-08-20T23:22:39.354Z,4.20
2017-08-20T23:27:41.021Z,3.80
2017-08-20T23:32:42.600Z,3.80
2017-08-20T23:37:44.373Z,3.70
2017-08-20T23:42:46.041Z,4.17
2017-08-20T23:47:47.717Z,4.07
2017-08-20T23:52:49.386Z,3.43
2017-08-20T23:57:51.445Z,3.50
